createdAt,value
2023-03-07T00:00:34.698Z,9.60
2023-03-07T00:05:38.537Z,9.72
2023-03-07T00:10:42.935Z,9.97
2023-03-07T00:15:48.597Z,10.24
2023-03-07T00:20:58.955Z,10.40
2023-03-07T00:26:05.213Z,10.49
2023-03-07T00:31:10.612Z,10.43
2023-03-07T00:36:17.120Z,10.67
2023-03-07T00:41:22.366Z,10.83
2023-03-07T00:46:28.770Z,10.83
2023-03-07T00:51:32.492Z,11.02
2023-03-07T00:56:37.069Z,10.94
2023-03-07T01:01:45.973Z,10.89
2023-03-07T01:06:50.521Z,10.76
2023-03-07T01:11:54.210Z,10.69
2023-03-07T01:16:59.855Z,10.78
2023-03-07T01:22:03.582Z,10.67
2023-03-07T01:27:07.360Z,10.54
2023-03-07T01:32:14.098Z,10.46
2023-03-07T01:37:18.556Z,10.39
2023-03-07T01:42:23.163Z,10.42
2023-03-07T01:47:28.821Z,10.31
2023-03-07T01:52:35.388Z,10.24
2023-03-07T01:57:42.304Z,10.19
2023-03-07T02:02:55.148Z,10.12
2023-03-07T02:08:02.779Z,9.98
2023-03-07T02:13:07.434Z,9.70
2023-03-07T02:18:17.037Z,9.64
2023-03-07T02:23:28.173Z,9.54
2023-03-07T02:28:34.463Z,9.58
2023-03-07T02:33:37.777Z,9.43
2023-03-07T02:38:45.450Z,9.29
2023-03-07T02:43:50.999Z,9.14
2023-03-07T02:48:54.658Z,9.03
2023-03-07T02:53:58.365Z,9.14
2023-03-07T02:59:05.858Z,9.14
2023-03-07T03:04:09.718Z,8.89
2023-03-07T03:09:13.840Z,8.69
2023-03-07T03:14:19.265Z,8.75
2023-03-07T03:19:22.925Z,8.46
2023-03-07T03:24:27.364Z,8.37
2023-03-07T03:29:34.099Z,8.46
2023-03-07T03:34:38.292Z,8.42
2023-03-07T03:39:42.279Z,8.48
2023-03-07T03:44:48.372Z,8.54
2023-03-07T03:49:54.150Z,8.52
2023-03-07T03:54:58.034Z,8.57
2023-03-07T04:00:04.890Z,8.54
2023-03-07T04:05:10.342Z,8.42
2023-03-07T04:10:14.310Z,8.31
2023-03-07T04:15:20.090Z,8.04
2023-03-07T04:20:25.106Z,8.01
2023-03-07T04:25:28.822Z,8.16
2023-03-07T04:30:34.100Z,8.13
2023-03-07T04:35:38.272Z,8.08
2023-03-07T04:40:42.384Z,8.13
2023-03-07T04:45:47.704Z,8.10
2023-03-07T04:50:51.565Z,8.06
2023-03-07T04:55:59.181Z,8.06
2023-03-07T05:01:05.731Z,8.14
2023-03-07T05:06:13.495Z,8.13
2023-03-07T05:11:17.198Z,8.22
2023-03-07T05:16:22.560Z,8.28
2023-03-07T05:26:29.951Z,8.26
2023-03-07T05:31:35.308Z,8.29
2023-03-07T05:36:38.954Z,8.22
2023-03-07T05:41:42.771Z,8.30
2023-03-07T05:46:48.114Z,8.26
2023-03-07T05:51:51.794Z,8.29
2023-03-07T05:56:55.403Z,8.25
2023-03-07T06:02:00.697Z,8.25
2023-03-07T06:07:04.408Z,8.22
2023-03-07T06:12:09.044Z,8.24
2023-03-07T06:17:14.346Z,8.24
2023-03-07T06:22:17.963Z,8.21
2023-03-07T06:27:21.636Z,8.10
2023-03-07T06:32:27.098Z,8.04
2023-03-07T06:37:30.766Z,8.07
2023-03-07T06:42:34.401Z,8.12
2023-03-07T06:47:39.753Z,8.03
2023-03-07T06:52:43.416Z,8.05
2023-03-07T06:57:47.502Z,7.97
2023-03-07T07:02:53.064Z,7.89
2023-03-07T07:07:56.740Z,8.00
2023-03-07T07:13:00.465Z,8.04
2023-03-07T07:18:05.852Z,7.88
2023-03-07T07:23:09.508Z,7.91
2023-03-07T07:28:13.177Z,7.85
2023-03-07T07:33:18.895Z,7.75
2023-03-07T07:38:22.667Z,7.71
2023-03-07T07:43:26.418Z,7.66
2023-03-07T07:48:31.922Z,7.53
2023-03-07T07:53:35.657Z,7.59
2023-03-07T07:58:39.290Z,7.67
2023-03-07T08:03:44.937Z,7.57
2023-03-07T08:08:48.663Z,7.50
2023-03-07T08:13:52.311Z,7.42
2023-03-07T08:18:58.273Z,7.35
2023-03-07T08:24:01.925Z,7.33
2023-03-07T08:29:05.553Z,7.24
2023-03-07T08:34:10.831Z,7.19
2023-03-07T08:39:14.936Z,7.14
2023-03-07T08:44:18.570Z,7.09
2023-03-07T08:49:23.914Z,6.88
2023-03-07T08:54:29.110Z,6.80
2023-03-07T08:59:33.477Z,6.65
2023-03-07T09:04:38.979Z,6.63
2023-03-07T09:09:42.774Z,6.55
2023-03-07T09:14:46.444Z,6.43
2023-03-07T09:19:51.760Z,6.28
2023-03-07T09:24:55.414Z,6.28
2023-03-07T09:29:59.024Z,6.27
2023-03-07T09:35:04.673Z,6.19
2023-03-07T09:40:12.948Z,6.11
2023-03-07T09:45:36.134Z,5.99
2023-03-07T09:50:50.963Z,5.98
2023-03-07T09:55:57.985Z,5.84
2023-03-07T10:01:01.941Z,5.78
2023-03-07T10:06:15.128Z,5.76
2023-03-07T10:11:29.892Z,5.78
2023-03-07T10:16:39.983Z,5.83
2023-03-07T10:21:59.040Z,5.80
2023-03-07T10:27:06.042Z,5.71
2023-03-07T10:32:22.918Z,5.62
2023-03-07T10:37:43.681Z,5.32
2023-03-07T10:42:47.560Z,5.12
2023-03-07T10:47:51.212Z,5.19
2023-03-07T10:52:59.089Z,5.24
2023-03-07T10:58:17.869Z,5.17
2023-03-07T11:03:27.462Z,5.05
2023-03-07T11:08:35.176Z,5.03
2023-03-07T11:13:39.272Z,4.95
2023-03-07T11:18:44.212Z,4.98
2023-03-07T11:24:00.502Z,4.92
2023-03-07T11:29:08.939Z,4.92
2023-03-07T11:34:36.202Z,4.99
2023-03-07T11:39:49.158Z,4.91
2023-03-07T11:44:55.091Z,4.86
2023-03-07T11:50:14.529Z,4.87
2023-03-07T11:55:29.695Z,4.89
2023-03-07T12:00:37.590Z,4.47
2023-03-07T12:05:57.591Z,4.57
2023-03-07T12:11:15.519Z,4.47
2023-03-07T12:16:24.555Z,4.49
2023-03-07T12:21:49.630Z,4.50
2023-03-07T12:27:01.288Z,4.36
2023-03-07T12:32:10.155Z,4.34
2023-03-07T12:37:20.800Z,4.36
2023-03-07T12:42:36.048Z,4.31
2023-03-07T12:47:56.463Z,4.19
2023-03-07T12:53:04.937Z,4.11
2023-03-07T12:58:20.232Z,4.07
2023-03-07T13:03:35.082Z,4.12
2023-03-07T13:08:40.719Z,3.90
2023-03-07T13:13:58.758Z,3.95
2023-03-07T13:19:34.620Z,3.95
2023-03-07T13:24:39.423Z,3.82
2023-03-07T13:30:17.819Z,3.90
2023-03-07T13:35:55.578Z,3.78
2023-03-07T13:41:01.152Z,3.80
2023-03-07T13:46:27.003Z,3.57
2023-03-07T13:51:30.785Z,3.64
2023-03-07T13:56:41.076Z,3.65
2023-03-07T14:01:49.742Z,3.71
2023-03-07T14:06:56.214Z,3.71
2023-03-07T14:12:08.352Z,3.66
2023-03-07T14:17:29.772Z,3.59
2023-03-07T14:22:55.458Z,3.65
2023-03-07T14:28:00.379Z,3.61
2023-03-07T14:33:05.709Z,3.64
2023-03-07T14:38:16.655Z,3.68
2023-03-07T14:43:37.551Z,3.76
2023-03-07T14:49:02.122Z,3.72
2023-03-07T14:54:13.204Z,3.76
2023-03-07T14:59:28.009Z,3.94
2023-03-07T15:04:34.453Z,4.11
2023-03-07T15:09:38.177Z,4.12
2023-03-07T15:14:45.725Z,4.41
2023-03-07T15:19:55.853Z,4.83
2023-03-07T15:24:59.703Z,5.13
2023-03-07T15:30:04.662Z,5.48
2023-03-07T15:35:19.066Z,5.69
2023-03-07T15:40:29.572Z,6.04
2023-03-07T15:45:34.983Z,6.23
2023-03-07T15:50:40.411Z,6.00
2023-03-07T15:55:46.024Z,5.88
2023-03-07T16:00:49.720Z,6.76
2023-03-07T16:05:56.271Z,7.11
2023-03-07T16:11:03.091Z,7.53
2023-03-07T16:16:16.482Z,7.23
2023-03-07T16:21:22.067Z,7.01
2023-03-07T16:26:26.194Z,6.99
2023-03-07T16:31:29.923Z,6.79
2023-03-07T16:36:36.162Z,6.74
2023-03-07T16:41:43.701Z,6.80
2023-03-07T16:46:52.243Z,7.34
2023-03-07T16:52:05.590Z,8.33
2023-03-07T16:57:15.578Z,8.32
2023-03-07T17:02:21.427Z,7.95
2023-03-07T17:07:26.810Z,7.91
2023-03-07T17:12:30.536Z,7.82
2023-03-07T17:17:36.616Z,7.85
2023-03-07T17:22:41.987Z,8.11
2023-03-07T17:27:49.417Z,7.93
2023-03-07T17:32:53.936Z,8.16
2023-03-07T17:37:59.203Z,8.43
2023-03-07T17:43:02.872Z,8.45
2023-03-07T17:48:09.032Z,8.42
2023-03-07T17:53:14.321Z,8.45
2023-03-07T17:58:17.983Z,8.38
2023-03-07T18:03:22.276Z,8.67
2023-03-07T18:08:27.617Z,8.70
2023-03-07T18:13:31.374Z,9.27
2023-03-07T18:18:36.332Z,9.56
2023-03-07T18:23:41.704Z,9.52
2023-03-07T18:28:47.023Z,9.80
2023-03-07T18:33:51.084Z,9.95
2023-03-07T18:38:56.381Z,10.06
2023-03-07T18:44:00.140Z,10.20
2023-03-07T18:49:03.737Z,10.78
2023-03-07T18:54:09.090Z,11.29
2023-03-07T18:59:12.710Z,11.28
2023-03-07T19:04:16.650Z,10.91
2023-03-07T19:09:21.996Z,11.53
2023-03-07T19:14:25.677Z,12.04
2023-03-07T19:19:29.326Z,11.98
2023-03-07T19:24:34.848Z,11.86
2023-03-07T19:29:38.445Z,12.31
2023-03-07T19:34:42.053Z,13.02
2023-03-07T19:39:47.304Z,13.01
2023-03-07T19:44:50.920Z,13.33
2023-03-07T19:49:54.528Z,13.62
2023-03-07T19:54:59.781Z,13.03
2023-03-07T20:00:03.572Z,12.73
2023-03-07T20:05:07.934Z,12.86
2023-03-07T20:10:13.876Z,12.68
2023-03-07T20:15:17.664Z,12.91
2023-03-07T20:20:21.361Z,13.24
2023-03-07T20:25:29.392Z,13.17
2023-03-07T20:30:33.019Z,13.05
2023-03-07T20:35:36.678Z,12.46
2023-03-07T20:40:42.015Z,12.77
2023-03-07T20:45:45.653Z,12.90
2023-03-07T20:50:49.298Z,13.17
2023-03-07T20:55:54.602Z,13.13
2023-03-07T21:00:58.492Z,12.72
2023-03-07T21:06:03.666Z,12.63
2023-03-07T21:11:21.289Z,12.62
2023-03-07T21:16:25.442Z,12.74
2023-03-07T21:21:30.340Z,12.55
2023-03-07T21:26:36.869Z,12.99
2023-03-07T21:31:40.542Z,12.77
2023-03-07T21:36:44.299Z,13.11
2023-03-07T21:41:49.595Z,13.29
2023-03-07T21:46:53.228Z,12.93
2023-03-07T21:51:56.870Z,13.01
2023-03-07T21:57:02.176Z,13.20
2023-03-07T22:02:05.811Z,12.86
2023-03-07T22:07:09.442Z,12.75
2023-03-07T22:12:14.727Z,12.85
2023-03-07T22:17:18.374Z,12.87
2023-03-07T22:22:22.282Z,13.09
2023-03-07T22:27:27.607Z,13.27
2023-03-07T22:32:31.334Z,13.30
2023-03-07T22:37:34.973Z,13.53
2023-03-07T22:42:40.322Z,13.71
2023-03-07T22:47:43.971Z,13.28
2023-03-07T22:52:47.651Z,12.99
2023-03-07T22:57:52.935Z,13.37
2023-03-07T23:02:56.603Z,13.33
2023-03-07T23:08:00.318Z,13.37
2023-03-07T23:13:05.628Z,13.33
2023-03-07T23:18:09.618Z,13.03
2023-03-07T23:23:13.268Z,12.67
2023-03-07T23:28:18.579Z,12.37
2023-03-07T23:33:22.197Z,12.05
2023-03-07T23:38:25.818Z,12.06
2023-03-07T23:43:31.082Z,11.68
2023-03-07T23:48:34.767Z,11.94
2023-03-07T23:53:38.615Z,12.00
2023-03-07T23:58:44.390Z,12.31
